Time;durP1;ratioP1;P1;durP2;ratioP2;P2;SDS_P1;SDS_P2;PMS_P1;PMS_P2;Temp;Humidity;BMP_temperature;BMP_pressure;BME280_temperature;BME280_humidity;BME280_pressure;Samples;Min_cycle;Max_cycle;Signal;HPM_P1;HPM_P2
2023/06/12 00:00:56;;;;;;;9.43;2.75;;;18.90;99.90;;;;;;5091554;28;20080;-58
2023/06/12 00:03:26;;;;;;;9.93;2.50;;;18.90;99.90;;;;;;5091461;28;20044;-58
2023/06/12 00:06:00;;;;;;;7.67;2.27;;;18.80;99.90;;;;;;5092458;28;20812;-57
2023/06/12 00:08:31;;;;;;;6.45;2.70;;;18.70;99.90;;;;;;5091831;28;20043;-58
2023/06/12 00:10:57;;;;;;;8.00;2.72;;;18.80;99.90;;;;;;5090064;28;20048;-57
2023/06/12 00:13:23;;;;;;;5.50;2.50;;;18.80;99.90;;;;;;5089939;28;20373;-58
2023/06/12 00:15:49;;;;;;;6.22;2.28;;;18.70;99.90;;;;;;5072567;28;20040;-58
2023/06/12 00:18:15;;;;;;;7.82;2.30;;;18.60;99.90;;;;;;5090782;28;20625;-59
2023/06/12 00:20:41;;;;;;;6.55;2.58;;;19.00;99.90;;;;;;5072426;28;20039;-58
2023/06/12 00:23:10;;;;;;;8.05;2.63;;;18.50;99.90;;;;;;5091326;28;20392;-57
2023/06/12 00:25:36;;;;;;;7.30;2.33;;;18.50;99.90;;;;;;5091199;28;20039;-57
2023/06/12 00:28:03;;;;;;;8.48;2.78;;;18.40;99.90;;;;;;5057176;28;20092;-58
2023/06/12 00:30:28;;;;;;;5.90;2.50;;;18.60;99.90;;;;;;5091680;28;20130;-57
2023/06/12 00:32:54;;;;;;;6.85;2.63;;;18.40;99.90;;;;;;5066176;28;20040;-57
2023/06/12 00:35:20;;;;;;;7.97;2.70;;;18.40;99.90;;;;;;5072893;28;20082;-57
2023/06/12 00:37:46;;;;;;;7.82;2.30;;;18.20;99.90;;;;;;5072884;28;20836;-57
2023/06/12 00:40:12;;;;;;;5.18;2.40;;;18.30;99.90;;;;;;5091955;28;20538;-56
2023/06/12 00:42:45;;;;;;;9.05;2.25;;;18.40;99.90;;;;;;5090688;28;20114;-58
2023/06/12 00:45:13;;;;;;;6.50;2.47;;;18.20;99.90;;;;;;5093952;28;20036;-57
2023/06/12 00:47:39;;;;;;;6.40;2.28;;;18.30;99.90;;;;;;5095226;28;20135;-58
2023/06/12 00:50:08;;;;;;;8.65;2.42;;;18.00;99.90;;;;;;5077250;28;20496;-57
2023/06/12 00:52:34;;;;;;;8.40;2.58;;;18.10;99.90;;;;;;5094599;28;20937;-57
2023/06/12 00:55:01;;;;;;;7.50;2.63;;;18.00;99.90;;;;;;5094321;28;20092;-58
2023/06/12 00:57:27;;;;;;;8.95;2.42;;;17.80;99.90;;;;;;5093290;28;20062;-57
2023/06/12 00:59:56;;;;;;;6.15;2.60;;;17.90;99.90;;;;;;5096361;28;20455;-57
2023/06/12 01:02:22;;;;;;;7.93;2.25;;;17.90;99.90;;;;;;5094862;28;20040;-56
2023/06/12 01:04:50;;;;;;;8.50;2.80;;;17.90;99.90;;;;;;5092689;28;20040;-57
2023/06/12 01:07:29;;;;;;;6.13;2.67;;;17.80;99.90;;;;;;5095462;28;20066;-57
2023/06/12 01:09:58;;;;;;;8.32;2.10;;;17.40;99.90;;;;;;5094617;28;20036;-57
2023/06/12 01:12:25;;;;;;;8.23;2.63;;;17.60;99.90;;;;;;5092656;28;20108;-57
2023/06/12 01:14:50;;;;;;;5.13;2.28;;;17.70;99.90;;;;;;5093924;28;20645;-57
2023/06/12 01:17:17;;;;;;;5.82;2.17;;;17.60;99.90;;;;;;5093869;28;20660;-56
2023/06/12 01:19:42;;;;;;;5.43;2.70;;;17.50;99.90;;;;;;5074286;28;20044;-56
2023/06/12 01:22:12;;;;;;;8.32;2.63;;;17.50;99.90;;;;;;5093941;28;20046;-60
2023/06/12 01:25:20;;;;;;;11.45;2.47;;;17.30;99.90;;;;;;5093353;28;20450;-57
2023/06/12 01:28:14;;;;;;;10.02;2.92;;;17.30;99.90;;;;;;5079124;28;20503;-57
2023/06/12 01:31:02;;;;;;;6.07;2.28;;;17.30;99.90;;;;;;5094758;28;20047;-56
2023/06/12 01:33:34;;;;;;;6.15;3.08;;;17.30;99.90;;;;;;5074405;28;20623;-57
2023/06/12 01:36:01;;;;;;;8.05;2.88;;;17.10;99.90;;;;;;5092444;28;20530;-57
2023/06/12 01:38:32;;;;;;;9.75;2.85;;;17.30;99.90;;;;;;5093185;28;20056;-56
2023/06/12 01:40:59;;;;;;;9.40;2.70;;;17.20;99.90;;;;;;5094246;28;20058;-57
2023/06/12 01:43:25;;;;;;;8.82;2.15;;;17.30;99.90;;;;;;5093332;28;20482;-56
2023/06/12 01:45:51;;;;;;;8.27;2.85;;;17.00;99.90;;;;;;5058604;28;20043;-57
2023/06/12 01:48:17;;;;;;;5.82;2.60;;;17.10;99.90;;;;;;5093416;28;21504;-57
2023/06/12 01:50:43;;;;;;;7.03;2.53;;;17.10;99.90;;;;;;5093864;28;20130;-57
2023/06/12 01:53:15;;;;;;;9.88;2.58;;;17.10;99.90;;;;;;5094534;28;20036;-57
2023/06/12 01:55:41;;;;;;;;;;;17.20;99.90;;;;;;5095417;28;20063;-57
2023/06/12 01:58:08;;;;;;;8.35;2.72;;;16.90;99.90;;;;;;5095573;28;20094;-57
2023/06/12 02:00:35;;;;;;;8.07;2.53;;;16.90;99.90;;;;;;5095815;28;20058;-57
2023/06/12 02:03:01;;;;;;;10.10;2.70;;;16.80;99.90;;;;;;5094548;28;20404;-57
2023/06/12 02:05:27;;;;;;;7.15;2.90;;;16.90;99.90;;;;;;5073909;28;20043;-57
2023/06/12 02:07:53;;;;;;;9.30;2.95;;;17.00;99.90;;;;;;5094711;28;20065;-57
2023/06/12 02:10:19;;;;;;;6.93;2.80;;;16.70;99.90;;;;;;5093142;28;20460;-57
2023/06/12 02:12:45;;;;;;;5.22;2.78;;;16.60;99.90;;;;;;5094042;28;20054;-58
2023/06/12 02:15:14;;;;;;;7.13;2.50;;;16.50;99.90;;;;;;5095364;28;20039;-58
2023/06/12 02:17:40;;;;;;;6.75;2.38;;;16.80;99.90;;;;;;5094458;28;20043;-58
2023/06/12 02:20:07;;;;;;;6.80;2.63;;;16.50;99.90;;;;;;5092869;28;20054;-58
2023/06/12 02:22:32;;;;;;;9.43;2.85;;;16.40;99.90;;;;;;5075200;28;20055;-56
2023/06/12 02:24:58;;;;;;;7.53;2.45;;;16.30;99.90;;;;;;5093784;28;20043;-57
2023/06/12 02:27:24;;;;;;;7.70;3.00;;;18.50;99.90;;;;;;5091393;28;20116;-57
2023/06/12 02:29:50;;;;;;;6.47;2.75;;;16.20;99.90;;;;;;5076133;28;20188;-57
2023/06/12 02:32:16;;;;;;;12.82;3.22;;;16.10;99.90;;;;;;5091468;28;20377;-57
2023/06/12 02:34:41;;;;;;;9.35;2.75;;;16.00;99.90;;;;;;5092515;28;20222;-57
2023/06/12 02:37:10;;;;;;;8.93;2.70;;;16.10;99.90;;;;;;5075690;28;20044;-56
2023/06/12 02:39:36;;;;;;;8.88;2.92;;;16.10;99.90;;;;;;5093749;28;20036;-56
2023/06/12 02:42:02;;;;;;;8.05;3.05;;;15.90;99.90;;;;;;5091749;28;20522;-56
2023/06/12 02:44:28;;;;;;;6.93;2.60;;;16.10;99.90;;;;;;5092069;28;20472;-56
2023/06/12 02:46:54;;;;;;;10.25;3.35;;;16.00;99.90;;;;;;5092824;28;20093;-56
2023/06/12 02:49:21;;;;;;;5.15;2.70;;;15.90;99.90;;;;;;5093295;28;20039;-57
2023/06/12 02:51:47;;;;;;;8.70;3.60;;;16.00;99.90;;;;;;5091325;28;20110;-57
2023/06/12 02:54:14;;;;;;;11.10;2.45;;;15.90;99.90;;;;;;5091652;28;20131;-56
2023/06/12 02:56:46;;;;;;;5.53;2.65;;;15.80;99.90;;;;;;5092214;28;20120;-56
2023/06/12 02:59:17;;;;;;;7.55;3.13;;;15.70;99.90;;;;;;5076571;28;20047;-57
2023/06/12 03:01:45;;;;;;;6.03;2.78;;;15.70;99.90;;;;;;5093528;28;20047;-56
2023/06/12 03:04:16;;;;;;;7.95;2.50;;;15.60;99.90;;;;;;5093126;28;20115;-57
2023/06/12 03:06:44;;;;;;;8.57;3.00;;;15.60;99.90;;;;;;5093358;28;20118;-56
2023/06/12 03:09:11;;;;;;;7.88;2.97;;;15.70;99.90;;;;;;5089783;28;20464;-56
2023/06/12 03:11:37;;;;;;;7.65;2.65;;;15.50;99.90;;;;;;5092172;28;20514;-56
2023/06/12 03:14:07;;;;;;;10.40;2.72;;;15.60;99.90;;;;;;5091900;28;20790;-56
2023/06/12 03:16:33;;;;;;;5.60;2.78;;;15.40;99.90;;;;;;5092586;28;20086;-56
2023/06/12 03:18:59;;;;;;;9.80;3.20;;;15.50;99.90;;;;;;5093349;28;20047;-58
2023/06/12 03:21:25;;;;;;;9.43;2.95;;;15.40;99.90;;;;;;5092373;28;20046;-57
2023/06/12 03:23:51;;;;;;;7.55;2.67;;;15.30;99.90;;;;;;5092369;28;20039;-56
2023/06/12 03:26:17;;;;;;;6.13;3.05;;;15.60;99.90;;;;;;5091568;28;20046;-56
2023/06/12 03:28:45;;;;;;;9.90;3.05;;;15.40;99.90;;;;;;5092352;28;20047;-56
2023/06/12 03:31:11;;;;;;;9.65;2.83;;;15.40;99.90;;;;;;5093557;28;20043;-56
2023/06/12 03:33:37;;;;;;;7.10;3.20;;;13.30;99.90;;;;;;5091872;28;20283;-56
2023/06/12 03:36:03;;;;;;;6.90;2.80;;;15.20;99.90;;;;;;5094175;28;20490;-56
2023/06/12 03:38:28;;;;;;;7.88;2.90;;;15.40;99.90;;;;;;5093060;28;20053;-56
2023/06/12 03:40:54;;;;;;;6.90;2.65;;;15.20;99.90;;;;;;5091729;28;20573;-56
2023/06/12 03:43:20;;;;;;;6.97;2.88;;;15.40;99.90;;;;;;5091422;28;20052;-56
2023/06/12 03:45:46;;;;;;;10.65;3.35;;;15.10;99.90;;;;;;5090168;28;20777;-56
2023/06/12 03:48:11;;;;;;;10.90;3.38;;;15.20;99.90;;;;;;5071497;28;20087;-56
2023/06/12 03:50:38;;;;;;;8.85;3.47;;;15.20;99.90;;;;;;5090987;28;20140;-56
2023/06/12 03:53:04;;;;;;;8.25;2.92;;;15.40;99.90;;;;;;5091381;28;20044;-56
2023/06/12 03:55:30;;;;;;;9.15;2.60;;;15.30;99.90;;;;;;5090446;28;20524;-56
2023/06/12 03:57:56;;;;;;;8.27;2.95;;;15.40;99.90;;;;;;5090017;28;20372;-56
2023/06/12 04:00:22;;;;;;;7.95;3.40;;;15.30;99.90;;;;;;5075433;28;20140;-56
2023/06/12 04:02:48;;;;;;;5.57;2.83;;;15.40;99.90;;;;;;5090733;28;20040;-56
2023/06/12 04:05:14;;;;;;;12.43;3.13;;;15.40;99.90;;;;;;5090440;28;20047;-56
2023/06/12 04:07:39;;;;;;;10.27;3.42;;;15.50;99.90;;;;;;5071845;28;20036;-56
2023/06/12 04:10:09;;;;;;;7.18;3.30;;;15.40;99.90;;;;;;5092394;28;20047;-55
2023/06/12 04:12:34;;;;;;;9.15;3.05;;;15.50;99.90;;;;;;5090882;28;20559;-56
2023/06/12 04:15:02;;;;;;;8.77;3.53;;;13.80;99.90;;;;;;5091751;28;20050;-56
2023/06/12 04:17:29;;;;;;;9.13;3.60;;;15.50;99.90;;;;;;5088552;28;20700;-56
2023/06/12 04:19:56;;;;;;;7.45;3.10;;;15.50;99.90;;;;;;5090736;28;20170;-56
2023/06/12 04:22:25;;;;;;;8.43;2.65;;;15.80;99.90;;;;;;5068934;28;20185;-55
2023/06/12 04:24:52;;;;;;;11.20;3.15;;;15.70;99.90;;;;;;5093255;28;20127;-56
2023/06/12 04:27:18;;;;;;;8.45;3.00;;;15.70;99.90;;;;;;5091563;28;20052;-56
2023/06/12 04:29:45;;;;;;;13.10;3.20;;;15.80;99.90;;;;;;5092151;28;20378;-55
2023/06/12 04:32:13;;;;;;;9.55;3.35;;;15.80;99.90;;;;;;5072275;28;20043;-56
2023/06/12 04:34:41;;;;;;;7.15;3.08;;;15.70;99.90;;;;;;5089913;28;20117;-55
2023/06/12 04:37:14;;;;;;;13.35;3.58;;;16.00;99.90;;;;;;5092218;28;20047;-55
2023/06/12 04:39:45;;;;;;;8.38;3.00;;;15.90;99.90;;;;;;5063185;28;20040;-55
2023/06/12 04:42:16;;;;;;;8.68;3.10;;;16.20;99.90;;;;;;5092337;28;20058;-56
2023/06/12 04:44:42;;;;;;;9.02;3.15;;;16.00;99.90;;;;;;5092440;28;20458;-55
2023/06/12 04:47:10;;;;;;;6.43;3.03;;;16.00;99.90;;;;;;5092052;28;20474;-55
2023/06/12 04:49:43;;;;;;;7.32;3.00;;;16.20;99.90;;;;;;5090478;28;20050;-55
2023/06/12 04:52:09;;;;;;;7.03;3.20;;;16.30;99.90;;;;;;5091294;28;20044;-55
2023/06/12 04:54:41;;;;;;;9.25;3.10;;;16.30;99.90;;;;;;5071197;28;20046;-55
2023/06/12 04:57:12;;;;;;;;;;;16.50;99.90;;;;;;5091770;28;20051;-56
2023/06/12 04:59:39;;;;;;;7.18;3.17;;;16.40;99.90;;;;;;5090346;28;19920;-54
2023/06/12 05:02:07;;;;;;;13.57;4.65;;;16.50;99.90;;;;;;5092563;28;20565;-55
2023/06/12 05:04:35;;;;;;;10.00;3.30;;;16.70;99.90;;;;;;5088809;28;20056;-55
2023/06/12 05:07:03;;;;;;;8.50;3.45;;;16.50;99.90;;;;;;5089156;28;20051;-56
2023/06/12 05:09:29;;;;;;;9.02;4.05;;;16.80;99.90;;;;;;5090928;28;20044;-55
2023/06/12 05:11:55;;;;;;;8.82;3.00;;;16.90;99.90;;;;;;5090093;28;20127;-56
2023/06/12 05:14:21;;;;;;;9.70;3.67;;;17.00;99.90;;;;;;5089621;28;20817;-55
2023/06/12 05:16:46;;;;;;;8.55;3.40;;;17.10;99.90;;;;;;5091711;28;21035;-55
2023/06/12 05:19:13;;;;;;;12.98;3.60;;;17.10;99.90;;;;;;5087496;28;20044;-56
2023/06/12 05:21:41;;;;;;;7.40;3.33;;;17.00;99.90;;;;;;5089943;28;20056;-55
2023/06/12 05:24:10;;;;;;;11.57;3.63;;;17.10;99.90;;;;;;5089385;28;20116;-55
2023/06/12 05:26:37;;;;;;;10.43;3.28;;;17.30;99.90;;;;;;5072045;28;20039;-53
2023/06/12 05:29:03;;;;;;;9.68;3.10;;;17.10;99.90;;;;;;5090421;28;20507;-56
2023/06/12 05:31:29;;;;;;;8.80;3.55;;;17.40;99.90;;;;;;5091918;28;20054;-54
2023/06/12 05:33:55;;;;;;;9.77;3.35;;;17.40;99.90;;;;;;5092372;28;20031;-54
2023/06/12 05:36:21;;;;;;;9.65;3.53;;;17.50;99.90;;;;;;5094140;28;20047;-51
2023/06/12 05:38:47;;;;;;;8.90;3.33;;;17.50;99.90;;;;;;5093213;28;20041;-50
2023/06/12 05:41:15;;;;;;;7.80;3.10;;;17.40;99.90;;;;;;5074140;28;20051;-46
2023/06/12 05:43:44;;;;;;;9.38;3.50;;;17.70;99.90;;;;;;5092142;28;20068;-47
2023/06/12 05:46:10;;;;;;;10.82;3.60;;;16.40;99.90;;;;;;5093647;28;20055;-47
2023/06/12 05:48:39;;;;;;;7.18;3.65;;;17.60;99.90;;;;;;5091892;28;20051;-48
2023/06/12 05:51:07;;;;;;;12.35;3.40;;;17.80;99.90;;;;;;5096105;28;20043;-46
2023/06/12 05:53:33;;;;;;;9.68;3.67;;;17.90;99.90;;;;;;5093820;28;20377;-46
2023/06/12 05:56:00;;;;;;;11.20;3.97;;;17.80;99.90;;;;;;5093336;28;20740;-46
2023/06/12 05:58:26;;;;;;;12.25;3.90;;;18.00;99.90;;;;;;5094720;28;20058;-46
2023/06/12 06:00:55;;;;;;;8.80;3.85;;;18.00;99.90;;;;;;5097286;28;20036;-48
2023/06/12 06:03:23;;;;;;;10.48;3.72;;;18.10;99.90;;;;;;5095388;28;20036;-47
2023/06/12 06:05:49;;;;;;;10.60;4.03;;;18.20;99.90;;;;;;5095817;28;20063;-48
2023/06/12 06:08:15;;;;;;;10.68;3.90;;;18.20;99.90;;;;;;5095843;28;20039;-49
2023/06/12 06:10:41;;;;;;;10.60;3.72;;;18.40;99.90;;;;;;5094817;28;20040;-50
2023/06/12 06:13:08;;;;;;;8.35;3.80;;;18.60;99.90;;;;;;5094860;28;20039;-50
2023/06/12 06:15:34;;;;;;;10.82;3.53;;;18.70;99.90;;;;;;5094338;28;20051;-47
2023/06/12 06:17:59;;;;;;;9.38;3.83;;;19.20;99.90;;;;;;5058268;28;20044;-49
2023/06/12 06:20:26;;;;;;;11.50;3.67;;;19.60;99.90;;;;;;5094903;28;20043;-47
2023/06/12 06:22:52;;;;;;;14.52;4.10;;;19.60;99.90;;;;;;5094373;28;20404;-46
2023/06/12 06:25:18;;;;;;;9.95;4.18;;;20.00;99.90;;;;;;5093066;28;20044;-46
2023/06/12 06:27:44;;;;;;;13.70;4.47;;;20.00;99.90;;;;;;5092399;28;20063;-47
2023/06/12 06:30:10;;;;;;;11.07;3.85;;;20.00;99.90;;;;;;5076479;28;20134;-50
2023/06/12 06:32:36;;;;;;;10.63;4.10;;;20.20;99.90;;;;;;5094844;28;20054;-49
2023/06/12 06:35:05;;;;;;;6.60;3.30;;;20.10;99.90;;;;;;5093754;28;20032;-49
2023/06/12 06:37:31;;;;;;;13.07;4.28;;;20.20;99.90;;;;;;5074486;28;20051;-48
2023/06/12 06:39:56;;;;;;;9.68;4.38;;;19.90;99.90;;;;;;5093197;28;20056;-48
2023/06/12 06:42:22;;;;;;;12.77;3.90;;;20.00;99.90;;;;;;5094909;28;20039;-52
2023/06/12 06:44:49;;;;;;;9.80;3.60;;;20.00;99.90;;;;;;5093473;28;20035;-49
2023/06/12 06:47:15;;;;;;;12.02;4.10;;;20.20;99.90;;;;;;5093869;28;20051;-51
2023/06/12 06:49:41;;;;;;;7.30;3.60;;;20.40;99.90;;;;;;5074971;28;20123;-50
2023/06/12 06:52:07;;;;;;;8.70;4.05;;;20.80;99.90;;;;;;5095289;28;20069;-47
2023/06/12 06:54:33;;;;;;;6.25;3.40;;;21.40;99.90;;;;;;5092194;28;20087;-51
2023/06/12 06:57:00;;;;;;;19.27;4.00;;;21.80;99.90;;;;;;5092216;28;20178;-50
2023/06/12 06:59:26;;;;;;;9.63;4.00;;;21.70;99.90;;;;;;5092204;28;20837;-49
2023/06/12 07:01:51;;;;;;;14.50;3.95;;;21.40;99.90;;;;;;5093724;28;20509;-52
2023/06/12 07:04:17;;;;;;;9.32;3.70;;;21.40;99.90;;;;;;5092567;28;20047;-48
2023/06/12 07:06:43;;;;;;;10.45;3.85;;;21.50;99.90;;;;;;5092129;28;20684;-52
2023/06/12 07:09:09;;;;;;;9.80;3.65;;;21.70;99.90;;;;;;5092082;28;20494;-51
2023/06/12 07:11:35;;;;;;;8.32;4.03;;;21.90;99.90;;;;;;5093196;28;21052;-52
2023/06/12 07:14:01;;;;;;;9.95;3.75;;;22.90;99.90;;;;;;5074420;28;20036;-51
2023/06/12 07:16:27;;;;;;;10.10;3.80;;;23.90;99.90;;;;;;5094470;28;20050;-51
2023/06/12 07:18:53;;;;;;;8.07;3.72;;;24.80;99.90;;;;;;5093157;28;20295;-52
2023/06/12 07:21:18;;;;;;;11.82;3.90;;;25.70;99.90;;;;;;5092651;28;20047;-49
2023/06/12 07:23:45;;;;;;;13.95;3.65;;;26.80;99.90;;;;;;5093614;28;20047;-52
2023/06/12 07:26:11;;;;;;;10.40;3.55;;;27.70;99.90;;;;;;5092645;28;20036;-54
2023/06/12 07:28:37;;;;;;;9.82;4.18;;;29.20;99.90;;;;;;5093947;28;20285;-53
2023/06/12 07:31:02;;;;;;;9.43;3.58;;;29.10;99.90;;;;;;5091651;28;20039;-55
2023/06/12 07:33:28;;;;;;;10.35;3.65;;;29.60;99.90;;;;;;5091875;28;21054;-50
2023/06/12 07:35:54;;;;;;;8.90;3.92;;;30.10;99.90;;;;;;5092167;28;20916;-51
2023/06/12 07:38:20;;;;;;;9.52;4.07;;;30.20;99.90;;;;;;5091596;28;20066;-51
2023/06/12 07:40:45;;;;;;;8.02;3.40;;;30.20;99.90;;;;;;5091699;28;20448;-48
2023/06/12 07:43:11;;;;;;;11.65;3.40;;;30.70;99.90;;;;;;5090488;28;20044;-50
2023/06/12 07:45:37;;;;;;;7.80;3.45;;;30.40;99.90;;;;;;5072443;28;20518;-49
2023/06/12 07:48:03;;;;;;;17.17;4.20;;;30.60;99.90;;;;;;5091477;28;20066;-52
2023/06/12 07:50:28;;;;;;;6.88;3.42;;;30.70;99.90;;;;;;5091376;28;20071;-48
2023/06/12 07:52:54;;;;;;;8.60;3.42;;;30.80;99.90;;;;;;5072657;28;20035;-52
2023/06/12 07:55:20;;;;;;;8.52;3.38;;;31.50;99.90;;;;;;5090404;28;20591;-52
2023/06/12 07:57:50;;;;;;;9.02;3.47;;;31.60;99.90;;;;;;5091690;28;20055;-50
2023/06/12 08:00:16;;;;;;;6.05;3.33;;;32.00;99.70;;;;;;5091988;28;20151;-51
2023/06/12 08:02:42;;;;;;;9.65;3.50;;;31.80;99.60;;;;;;5091775;28;20070;-49
2023/06/12 08:05:08;;;;;;;7.40;3.25;;;31.80;99.90;;;;;;5089592;28;20088;-52
2023/06/12 08:07:34;;;;;;;8.25;2.83;;;31.70;98.80;;;;;;5091434;28;20071;-47
2023/06/12 08:10:00;;;;;;;11.27;3.78;;;31.60;98.80;;;;;;5092623;28;20122;-51
2023/06/12 08:12:26;;;;;;;7.45;3.30;;;31.20;98.70;;;;;;5090019;28;20134;-51
2023/06/12 08:14:53;;;;;;;13.45;3.67;;;31.50;99.40;;;;;;5090523;28;20271;-52
2023/06/12 08:17:22;;;;;;;10.38;3.70;;;31.10;98.30;;;;;;5091244;28;20659;-50
2023/06/12 08:19:48;;;;;;;9.80;3.47;;;31.90;98.60;;;;;;5091833;28;20040;-50
2023/06/12 08:22:15;;;;;;;11.18;3.72;;;31.50;98.30;;;;;;5072951;28;20043;-52
2023/06/12 08:24:43;;;;;;;7.45;3.45;;;31.40;98.30;;;;;;5090691;28;20050;-48
2023/06/12 08:27:11;;;;;;;12.27;3.78;;;31.70;97.70;;;;;;5072047;28;20534;-50
2023/06/12 08:29:39;;;;;;;10.27;3.85;;;31.20;98.00;;;;;;5090761;28;20040;-49
2023/06/12 08:32:06;;;;;;;11.02;3.78;;;31.20;97.40;;;;;;5091107;28;20532;-46
2023/06/12 08:34:32;;;;;;;14.73;3.67;;;30.90;97.80;;;;;;5072530;28;20076;-48
2023/06/12 08:36:58;;;;;;;13.65;3.50;;;31.20;98.60;;;;;;5092895;28;20479;-46
2023/06/12 08:39:24;;;;;;;13.65;4.00;;;31.50;98.30;;;;;;5090106;28;20048;-49
2023/06/12 08:41:57;;;;;;;7.78;3.33;;;31.10;98.50;;;;;;5089841;28;20052;-50
2023/06/12 08:44:23;;;;;;;9.05;3.75;;;31.40;98.20;;;;;;5091639;28;20484;-48
2023/06/12 08:46:54;;;;;;;14.07;4.03;;;31.20;97.60;;;;;;5090703;28;20582;-50
2023/06/12 08:49:20;;;;;;;;;;;30.60;97.20;;;;;;5091000;28;20079;-49
2023/06/12 08:51:49;;;;;;;7.75;3.17;;;30.50;96.90;;;;;;5091702;28;19959;-49
2023/06/12 08:54:15;;;;;;;7.18;3.35;;;30.90;97.40;;;;;;5092010;28;20523;-48
2023/06/12 08:56:45;;;;;;;8.32;3.60;;;30.70;97.40;;;;;;5090589;28;20051;-48
2023/06/12 08:59:11;;;;;;;9.20;3.75;;;30.30;97.40;;;;;;5090640;28;20526;-50
2023/06/12 09:01:41;;;;;;;9.32;3.40;;;29.90;97.70;;;;;;5091432;28;20138;-47
2023/06/12 09:04:33;;;;;;;7.50;3.42;;;29.80;98.00;;;;;;5089834;28;20436;-49
2023/06/12 09:07:03;;;;;;;10.40;3.88;;;29.80;98.50;;;;;;5092718;28;20036;-48
2023/06/12 09:09:39;;;;;;;7.80;3.67;;;29.60;99.50;;;;;;5061257;28;20529;-47
2023/06/12 09:12:09;;;;;;;9.10;4.13;;;29.80;99.00;;;;;;5094259;28;20637;-50
2023/06/12 09:14:35;;;;;;;8.82;3.30;;;29.70;99.90;;;;;;5094808;28;20051;-46
2023/06/12 09:17:04;;;;;;;9.10;3.63;;;29.60;99.00;;;;;;5076482;28;20031;-47
2023/06/12 09:19:41;;;;;;;7.07;3.17;;;29.10;98.20;;;;;;5094753;28;20039;-46
2023/06/12 09:22:07;;;;;;;6.18;3.50;;;28.80;97.80;;;;;;5093264;28;20043;-47
2023/06/12 09:24:33;;;;;;;10.30;3.55;;;28.00;98.90;;;;;;5094361;28;20044;-46
2023/06/12 09:27:00;;;;;;;7.03;2.92;;;27.40;98.80;;;;;;5094888;28;20036;-46
2023/06/12 09:29:30;;;;;;;9.25;3.08;;;27.60;99.90;;;;;;5094116;28;20047;-47
2023/06/12 09:31:59;;;;;;;7.78;3.10;;;27.50;99.20;;;;;;5096639;28;20407;-50
2023/06/12 09:34:25;;;;;;;6.07;2.90;;;27.30;99.60;;;;;;5093646;28;20036;-46
2023/06/12 09:36:52;;;;;;;6.63;3.22;;;27.30;99.10;;;;;;5093736;28;20100;-46
2023/06/12 09:39:28;;;;;;;8.27;3.33;;;27.10;98.90;;;;;;5074462;28;20098;-47
2023/06/12 09:41:55;;;;;;;7.53;3.30;;;27.10;99.40;;;;;;5094886;28;20055;-47
2023/06/12 09:44:27;;;;;;;6.60;3.40;;;27.30;99.20;;;;;;5094083;28;20466;-46
2023/06/12 09:47:04;;;;;;;9.60;3.60;;;27.40;99.20;;;;;;5095055;28;20055;-47
2023/06/12 09:49:34;;;;;;;8.25;3.17;;;27.30;98.40;;;;;;5094368;28;20051;-45
2023/06/12 09:52:05;;;;;;;12.30;3.20;;;27.40;98.60;;;;;;5094238;28;20112;-49
2023/06/12 09:54:32;;;;;;;6.55;4.03;;;27.40;99.20;;;;;;5094656;28;20393;-47
2023/06/12 09:57:00;;;;;;;9.57;3.38;;;27.40;98.80;;;;;;5094183;28;20276;-50
2023/06/12 09:59:33;;;;;;;8.73;3.38;;;27.90;99.00;;;;;;5094870;28;20048;-48
2023/06/12 10:02:16;;;;;;;6.60;3.35;;;27.70;98.70;;;;;;5094387;28;20196;-45
2023/06/12 10:05:07;;;;;;;8.48;3.13;;;25.70;99.30;;;;;;5093933;28;20413;-50
2023/06/12 10:07:39;;;;;;;7.97;3.45;;;27.70;98.30;;;;;;5093707;28;20051;-49
2023/06/12 10:10:07;;;;;;;8.57;3.67;;;27.80;98.70;;;;;;5093619;28;20051;-46
2023/06/12 10:12:34;;;;;;;6.38;3.58;;;28.00;98.70;;;;;;5092533;28;20357;-46
2023/06/12 10:15:03;;;;;;;8.43;3.95;;;27.90;98.30;;;;;;5067557;28;20127;-47
2023/06/12 10:17:30;;;;;;;7.03;3.17;;;27.90;99.40;;;;;;5092087;28;20045;-46
2023/06/12 10:19:57;;;;;;;10.60;3.70;;;27.60;99.10;;;;;;5093113;28;20631;-47
2023/06/12 10:22:23;;;;;;;7.10;3.47;;;27.80;99.10;;;;;;5092248;28;20039;-47
2023/06/12 10:24:49;;;;;;;7.45;3.20;;;28.00;98.90;;;;;;5092514;28;20054;-48
2023/06/12 10:27:18;;;;;;;10.88;3.45;;;28.10;99.10;;;;;;5092477;28;20039;-48
2023/06/12 10:29:43;;;;;;;6.63;3.63;;;28.20;99.40;;;;;;5093493;28;20800;-49
2023/06/12 10:32:11;;;;;;;9.05;3.28;;;28.60;99.80;;;;;;5093703;28;20043;-51
2023/06/12 10:34:41;;;;;;;6.85;3.25;;;28.70;98.90;;;;;;5075490;28;20043;-46
2023/06/12 10:37:32;;;;;;;5.63;3.20;;;28.70;98.60;;;;;;5091921;28;20153;-51
2023/06/12 10:40:07;;;;;;;7.65;3.20;;;28.90;97.90;;;;;;5091675;28;20047;-49
2023/06/12 10:42:48;;;;;;;6.70;3.40;;;31.30;98.30;;;;;;5092719;28;20047;-49
2023/06/12 10:45:16;;;;;;;10.88;3.33;;;28.80;97.40;;;;;;5072860;28;20068;-46
2023/06/12 10:47:42;;;;;;;9.00;3.33;;;28.90;97.50;;;;;;5092730;28;20280;-49
2023/06/12 10:50:08;;;;;;;10.07;3.40;;;28.90;98.20;;;;;;5090992;28;20496;-49
2023/06/12 10:52:35;;;;;;;9.32;3.17;;;29.10;97.90;;;;;;5091787;28;20528;-48
2023/06/12 10:55:17;;;;;;;5.35;3.13;;;28.90;98.10;;;;;;5092124;28;21083;-51
2023/06/12 10:58:00;;;;;;;10.93;3.95;;;29.00;98.60;;;;;;5090979;28;20155;-50
2023/06/12 11:00:37;;;;;;;7.78;3.92;;;26.70;96.90;;;;;;5091882;28;20134;-50
2023/06/12 11:03:13;;;;;;;8.70;3.70;;;29.00;98.50;;;;;;5073421;28;20131;-48
2023/06/12 11:05:54;;;;;;;5.50;3.53;;;29.40;97.90;;;;;;5092545;28;20044;-48
2023/06/12 11:08:20;;;;;;;10.17;3.70;;;29.50;97.20;;;;;;5092696;28;20050;-47
2023/06/12 11:10:46;;;;;;;7.50;3.58;;;29.40;97.70;;;;;;5092947;28;20286;-50
2023/06/12 11:13:12;;;;;;;6.80;3.40;;;29.40;98.20;;;;;;5091339;28;20058;-49
2023/06/12 11:15:46;;;;;;;10.63;3.97;;;29.60;97.60;;;;;;5091683;28;20047;-50
2023/06/12 11:18:13;;;;;;;8.13;3.53;;;29.40;96.50;;;;;;5092669;28;20867;-49
2023/06/12 11:20:40;;;;;;;7.18;3.60;;;29.20;96.90;;;;;;5091771;28;20054;-48
2023/06/12 11:23:06;;;;;;;6.57;3.33;;;29.40;97.20;;;;;;5093402;28;20055;-50
2023/06/12 11:25:42;;;;;;;7.38;4.15;;;29.40;98.80;;;;;;5091152;28;20555;-50
2023/06/12 11:28:08;;;;;;;6.45;3.78;;;29.20;97.60;;;;;;5090721;28;21150;-49
2023/06/12 11:30:34;;;;;;;11.07;3.50;;;29.40;97.70;;;;;;5090816;28;20471;-49
2023/06/12 11:33:13;;;;;;;7.28;3.83;;;29.40;98.10;;;;;;5094040;28;20044;-49
2023/06/12 11:35:44;;;;;;;6.35;3.50;;;29.80;97.70;;;;;;5091787;28;20459;-51
2023/06/12 11:38:18;;;;;;;8.30;3.90;;;29.60;98.30;;;;;;5091382;28;20039;-46
2023/06/12 11:40:45;;;;;;;10.88;4.10;;;29.20;96.60;;;;;;5091633;28;20383;-51
2023/06/12 11:43:11;;;;;;;7.20;3.90;;;29.70;97.70;;;;;;5091948;28;20388;-49
2023/06/12 11:45:43;;;;;;;8.68;3.92;;;29.60;97.80;;;;;;5090887;28;20407;-47
2023/06/12 11:48:14;;;;;;;9.27;4.63;;;29.40;97.40;;;;;;5091337;28;20050;-49
2023/06/12 11:50:46;;;;;;;9.97;3.70;;;29.70;98.20;;;;;;5091556;28;20051;-48
2023/06/12 11:53:13;;;;;;;6.30;3.92;;;29.80;98.20;;;;;;5072363;28;20199;-48
2023/06/12 11:55:39;;;;;;;9.25;4.07;;;29.50;97.30;;;;;;5092173;28;20085;-49
2023/06/12 11:58:05;;;;;;;7.45;3.88;;;29.60;97.00;;;;;;5090917;28;20091;-50
2023/06/12 12:00:39;;;;;;;8.00;3.90;;;29.70;97.30;;;;;;5090351;28;20042;-50
2023/06/12 12:03:08;;;;;;;9.13;4.03;;;29.90;96.00;;;;;;5092207;28;20094;-50
2023/06/12 12:05:36;;;;;;;10.10;3.80;;;29.80;97.30;;;;;;5091240;28;20078;-47
2023/06/12 12:08:03;;;;;;;8.57;4.35;;;29.70;96.60;;;;;;5090169;28;20120;-50
2023/06/12 12:10:37;;;;;;;6.88;4.00;;;30.00;96.50;;;;;;5090972;28;20052;-49
2023/06/12 12:13:03;;;;;;;11.00;4.20;;;29.90;95.90;;;;;;5089528;28;20048;-49
2023/06/12 12:15:39;;;;;;;7.85;4.13;;;29.40;96.50;;;;;;5091446;28;20083;-49
2023/06/12 12:18:10;;;;;;;5.75;4.10;;;30.00;96.80;;;;;;5089498;28;20051;-48
2023/06/12 12:20:36;;;;;;;7.45;4.45;;;30.10;95.40;;;;;;5088049;28;20381;-47
2023/06/12 12:23:10;;;;;;;8.73;4.18;;;29.80;96.20;;;;;;5089905;28;20055;-49
2023/06/12 12:25:36;;;;;;;8.25;4.53;;;29.40;95.50;;;;;;5071886;28;20077;-51
2023/06/12 12:28:03;;;;;;;8.35;4.28;;;29.20;96.00;;;;;;5090239;28;20385;-49
2023/06/12 12:30:30;;;;;;;8.80;4.40;;;29.00;95.90;;;;;;5091003;28;20073;-47
2023/06/12 12:32:57;;;;;;;10.50;4.30;;;29.20;96.20;;;;;;5090598;28;20047;-49
2023/06/12 12:35:24;;;;;;;8.90;4.57;;;28.90;96.00;;;;;;5089304;28;20404;-50
2023/06/12 12:37:51;;;;;;;7.93;4.32;;;29.00;96.70;;;;;;5090359;28;20055;-50
2023/06/12 12:40:17;;;;;;;9.07;4.65;;;29.20;96.30;;;;;;5090519;28;20669;-47
2023/06/12 12:42:45;;;;;;;5.88;4.40;;;29.60;96.50;;;;;;5092009;28;20639;-46
2023/06/12 12:45:12;;;;;;;7.35;4.75;;;29.90;96.10;;;;;;5091941;28;20849;-51
2023/06/12 12:47:44;;;;;;;9.10;4.50;;;29.60;95.30;;;;;;5071550;28;20636;-47
2023/06/12 12:50:11;;;;;;;9.60;4.10;;;30.00;95.70;;;;;;5090498;28;20056;-48